Time;durP1;ratioP1;P1;durP2;ratioP2;P2;SDS_P1;SDS_P2;PMS_P1;PMS_P2;Temp;Humidity;BMP_temperature;BMP_pressure;BME280_temperature;BME280_humidity;BME280_pressure;Samples;Min_cycle;Max_cycle;Signal;HPM_P1;HPM_P2
2021/04/03 00:02:25;;;;;;;24.13;8.15;;;;;;;5.05;75.78;102563.63;5240780;28;20059;-68
2021/04/03 00:04:56;;;;;;;22.70;7.68;;;;;;;5.17;76.03;102582.31;5240967;28;20316;-68
2021/04/03 00:07:27;;;;;;;21.80;7.30;;;;;;;5.17;76.22;102584.91;5239987;28;20041;-68
2021/04/03 00:09:59;;;;;;;24.63;7.97;;;;;;;5.16;76.69;102588.41;5241561;28;20030;-68
2021/04/03 00:12:30;;;;;;;19.70;7.18;;;;;;;5.20;77.39;102582.19;5221212;28;20041;-68
2021/04/03 00:15:03;;;;;;;31.33;7.32;;;;;;;5.21;78.15;102581.28;5239883;28;20025;-68
2021/04/03 00:17:34;;;;;;;25.67;6.93;;;;;;;5.20;76.73;102572.66;5240139;28;20111;-68
2021/04/03 00:20:09;;;;;;;21.73;6.20;;;;;;;5.28;76.62;102580.19;5239427;28;20025;-68
2021/04/03 00:22:41;;;;;;;22.17;5.68;;;;;;;5.23;76.89;102574.31;5235814;28;20026;-68
2021/04/03 00:25:14;;;;;;;16.38;5.90;;;;;;;5.23;77.61;102582.09;5240774;28;20056;-68
2021/04/03 00:27:45;;;;;;;23.95;6.63;;;;;;;5.23;78.16;102577.75;5236312;28;20025;-69
2021/04/03 00:30:18;;;;;;;20.33;6.47;;;;;;;5.27;76.57;102589.72;5238882;28;20025;-70
2021/04/03 00:32:49;;;;;;;24.98;6.90;;;;;;;5.24;78.13;102594.19;5239340;28;20104;-68
2021/04/03 00:35:23;;;;;;;23.53;7.17;;;;;;;5.27;78.75;102591.50;5241129;28;20033;-68
2021/04/03 00:37:58;;;;;;;27.17;7.60;;;;;;;5.24;78.87;102597.63;5239294;28;20052;-68
2021/04/03 00:40:38;;;;;;;19.92;6.85;;;;;;;5.30;79.19;102579.22;5238931;28;20025;-68
2021/04/03 00:43:18;;;;;;;19.30;7.03;;;;;;;5.28;78.21;102582.78;5240262;28;20041;-69
2021/04/03 00:45:51;;;;;;;25.50;6.47;;;;;;;5.26;78.73;102579.38;5242664;28;20057;-68
2021/04/03 00:48:22;;;;;;;23.73;5.95;;;;;;;5.24;78.58;102584.63;5240268;28;20033;-68
2021/04/03 00:50:55;;;;;;;27.73;6.32;;;;;;;5.23;77.33;102582.09;5237943;28;20049;-68
2021/04/03 00:53:27;;;;;;;20.77;5.75;;;;;;;5.21;77.00;102568.28;5237362;28;20035;-68
2021/04/03 00:56:03;;;;;;;20.40;5.45;;;;;;;5.18;76.91;102577.03;5239748;28;20029;-68
2021/04/03 00:58:34;;;;;;;16.25;4.78;;;;;;;5.08;76.88;102571.31;5237593;28;20029;-68
2021/04/03 01:01:06;;;;;;;20.80;4.53;;;;;;;5.08;76.55;102579.13;5239118;28;20040;-68
2021/04/03 01:03:37;;;;;;;15.63;4.25;;;;;;;5.04;76.40;102574.94;5239849;28;20033;-68
2021/04/03 01:06:09;;;;;;;20.85;4.00;;;;;;;5.04;76.72;102561.09;5240194;28;20389;-69
2021/04/03 01:08:40;;;;;;;18.08;4.05;;;;;;;5.01;75.71;102562.03;5238325;28;20436;-68
2021/04/03 01:11:12;;;;;;;16.67;4.10;;;;;;;5.01;75.75;102572.44;5237828;28;20485;-68
2021/04/03 01:14:01;;;;;;;18.88;4.00;;;;;;;5.05;75.92;102568.81;5239136;28;20132;-69
2021/04/03 01:16:48;;;;;;;16.35;4.00;;;;;;;5.01;76.35;102566.38;5239525;28;20030;-68
2021/04/03 01:20:01;;;;;;;19.98;4.40;;;;;;;5.09;75.97;102583.41;5238111;28;20493;-69
2021/04/03 01:22:53;;;;;;;17.98;4.03;;;;;;;5.07;75.46;102568.75;5237760;28;20033;-68
2021/04/03 01:25:37;;;;;;;16.42;3.80;;;;;;;5.05;75.12;102576.63;5237550;28;20021;-68
2021/04/03 01:28:23;;;;;;;21.30;5.38;;;;;;;5.07;75.25;102576.56;5239382;28;20022;-68
2021/04/03 01:30:56;;;;;;;15.20;3.40;;;;;;;5.07;75.69;102579.16;5239128;28;20300;-68
2021/04/03 01:33:31;;;;;;;25.48;4.53;;;;;;;5.08;75.40;102566.13;5236683;28;20057;-68
2021/04/03 01:36:06;;;;;;;20.25;4.00;;;;;;;5.08;75.77;102573.06;5238045;28;20036;-68
2021/04/03 01:38:44;;;;;;;21.58;3.58;;;;;;;5.10;75.32;102569.50;5239417;28;20055;-68
2021/04/03 01:41:17;;;;;;;19.75;4.22;;;;;;;5.07;76.42;102564.41;5238328;28;20071;-68
2021/04/03 01:43:51;;;;;;;14.98;3.28;;;;;;;5.08;75.19;102565.28;5237578;28;20491;-68
2021/04/03 01:46:23;;;;;;;22.30;3.72;;;;;;;5.09;75.25;102567.81;5237347;28;20040;-70
2021/04/03 01:48:57;;;;;;;13.57;3.67;;;;;;;5.09;75.87;102561.78;5238765;28;20025;-68
2021/04/03 01:51:30;;;;;;;16.67;3.97;;;;;;;5.08;75.27;102562.69;5238476;28;20036;-68
2021/04/03 01:54:02;;;;;;;19.17;4.43;;;;;;;5.07;75.62;102563.56;5233861;28;20044;-68
2021/04/03 01:56:33;;;;;;;24.35;4.55;;;;;;;5.01;75.36;102551.66;5234262;28;20029;-68
2021/04/03 01:59:09;;;;;;;19.60;4.38;;;;;;;5.09;75.10;102559.19;5238639;28;20112;-68
2021/04/03 02:01:43;;;;;;;13.93;3.88;;;;;;;5.12;74.79;102574.66;5238210;28;20056;-68
2021/04/03 02:04:16;;;;;;;22.90;4.55;;;;;;;5.08;75.09;102562.69;5237011;28;20026;-68
2021/04/03 02:06:48;;;;;;;18.77;3.65;;;;;;;5.08;74.74;102567.88;5222667;28;20025;-68
2021/04/03 02:09:21;;;;;;;18.70;4.47;;;;;;;5.05;74.43;102574.03;5238895;28;20067;-68
2021/04/03 02:11:53;;;;;;;16.48;3.08;;;;;;;5.09;74.08;102573.00;5237461;28;20057;-68
2021/04/03 02:14:26;;;;;;;17.77;3.63;;;;;;;5.02;74.65;102566.31;5216017;28;20087;-68
2021/04/03 02:16:59;;;;;;;20.55;3.80;;;;;;;5.04;74.81;102577.53;5237821;28;20029;-68
2021/04/03 02:19:30;;;;;;;22.33;4.07;;;;;;;5.04;75.34;102576.69;5235546;28;20095;-69
2021/04/03 02:22:03;;;;;;;10.75;2.83;;;;;;;5.01;75.65;102575.03;5238728;28;20067;-68
2021/04/03 02:24:35;;;;;;;11.57;2.75;;;;;;;5.05;73.85;102580.97;5234814;28;20326;-68
2021/04/03 02:27:07;;;;;;;15.55;3.38;;;;;;;5.00;75.07;102575.94;5235791;28;20029;-67
2021/04/03 02:29:39;;;;;;;16.23;3.45;;;;;;;5.06;74.88;102580.06;5237128;28;20032;-68
2021/04/03 02:32:10;;;;;;;20.50;4.35;;;;;;;4.98;75.65;102579.47;5237058;28;20560;-69
2021/04/03 02:34:42;;;;;;;20.38;3.92;;;;;;;4.99;74.08;102578.56;5238569;28;20108;-68
2021/04/03 02:37:13;;;;;;;22.63;3.88;;;;;;;4.96;75.07;102570.88;5238028;28;20083;-68
2021/04/03 02:39:44;;;;;;;16.75;3.80;;;;;;;4.98;74.97;102582.06;5236187;28;20036;-68
2021/04/03 02:42:21;;;;;;;20.95;3.70;;;;;;;4.97;76.03;102585.59;5239723;28;20076;-68
2021/04/03 02:44:57;;;;;;;17.63;4.75;;;;;;;4.98;75.52;102582.91;5235605;28;20482;-68
2021/04/03 02:47:37;;;;;;;20.85;3.47;;;;;;;4.99;76.18;102582.00;5236814;28;20490;-68
2021/04/03 02:50:18;;;;;;;20.52;3.67;;;;;;;5.01;75.95;102585.41;5235026;28;20029;-68
2021/04/03 02:52:52;;;;;;;21.02;3.75;;;;;;;4.97;75.89;102568.25;5236894;28;20030;-68
2021/04/03 02:55:28;;;;;;;20.40;3.60;;;;;;;4.99;75.86;102571.63;5236092;28;20075;-68
2021/04/03 02:58:00;;;;;;;12.93;3.10;;;;;;;5.04;74.32;102577.53;5239786;28;20556;-68
2021/04/03 03:00:32;;;;;;;21.35;3.20;;;;;;;5.01;73.94;102582.81;5235228;28;20037;-68
2021/04/03 03:03:05;;;;;;;13.02;3.50;;;;;;;5.09;74.60;102585.16;5236874;28;20363;-68
2021/04/03 03:05:36;;;;;;;;;;;;;;;5.27;73.99;102588.88;5239179;28;20481;-69
2021/04/03 03:08:10;;;;;;;11.95;3.33;;;;;;;5.08;74.10;102578.28;5238226;28;19956;-68
2021/04/03 03:10:45;;;;;;;15.95;3.97;;;;;;;5.04;74.16;102582.72;5238175;28;20013;-68
2021/04/03 03:13:20;;;;;;;12.13;3.10;;;;;;;5.05;74.20;102581.81;5237630;28;20030;-68
2021/04/03 03:15:51;;;;;;;16.05;3.20;;;;;;;5.06;75.20;102574.88;5237383;28;20026;-69
2021/04/03 03:18:23;;;;;;;18.98;3.30;;;;;;;5.02;75.80;102573.28;5241409;28;20029;-68
2021/04/03 03:20:56;;;;;;;18.30;3.90;;;;;;;5.02;73.66;102574.13;5242228;28;20053;-68
2021/04/03 03:23:28;;;;;;;17.00;3.15;;;;;;;5.06;74.83;102569.66;5242795;28;20021;-68
2021/04/03 03:25:59;;;;;;;16.85;3.15;;;;;;;5.01;74.02;102567.25;5240205;28;20446;-69
2021/04/03 03:28:32;;;;;;;17.92;3.55;;;;;;;5.06;75.31;102567.06;5222702;28;20025;-68
2021/04/03 03:31:03;;;;;;;13.00;2.95;;;;;;;5.09;74.48;102574.78;5240728;28;20036;-68
2021/04/03 03:33:34;;;;;;;16.83;3.95;;;;;;;5.00;74.48;102567.28;5240947;28;20041;-68
2021/04/03 03:36:08;;;;;;;18.02;3.08;;;;;;;4.98;74.07;102556.94;5241581;28;20029;-68
2021/04/03 03:38:40;;;;;;;14.93;2.80;;;;;;;4.94;74.09;102560.53;5241057;28;20041;-68
2021/04/03 03:41:12;;;;;;;17.38;3.33;;;;;;;4.91;75.30;102559.81;5239298;28;20461;-68
2021/04/03 03:43:45;;;;;;;15.50;3.33;;;;;;;4.86;74.30;102558.22;5226363;28;20032;-68
2021/04/03 03:46:17;;;;;;;14.93;3.55;;;;;;;4.88;74.11;102566.78;5240452;28;20491;-68
2021/04/03 03:48:49;;;;;;;20.27;4.65;;;;;;;4.89;74.78;102557.28;5240068;28;20045;-68
2021/04/03 03:51:20;;;;;;;17.25;3.92;;;;;;;4.89;75.21;102562.47;5240712;28;20060;-68
2021/04/03 03:53:51;;;;;;;14.20;3.22;;;;;;;4.88;73.56;102565.94;5239889;28;20029;-68
2021/04/03 03:56:23;;;;;;;20.25;4.00;;;;;;;4.84;74.03;102570.38;5241186;28;20068;-68
2021/04/03 03:58:54;;;;;;;18.20;3.55;;;;;;;4.86;73.86;102559.97;5240861;28;20109;-68
2021/04/03 04:01:25;;;;;;;18.05;4.20;;;;;;;4.85;74.09;102572.09;5237947;28;20033;-69
2021/04/03 04:03:57;;;;;;;17.75;4.22;;;;;;;4.83;73.84;102567.84;5239675;28;20325;-69
2021/04/03 04:06:28;;;;;;;17.25;3.30;;;;;;;4.84;74.40;102564.34;5237402;28;20033;-69
2021/04/03 04:09:02;;;;;;;26.73;3.90;;;;;;;4.84;73.98;102569.53;5241992;28;20079;-69
2021/04/03 04:11:34;;;;;;;25.75;4.43;;;;;;;4.84;74.20;102565.19;5224645;28;20490;-69
2021/04/03 04:14:05;;;;;;;20.73;3.85;;;;;;;4.92;74.71;102567.53;5239521;28;20057;-69
2021/04/03 04:16:37;;;;;;;21.30;4.13;;;;;;;4.87;73.97;102569.44;5241057;28;20103;-69
2021/04/03 04:19:08;;;;;;;18.40;3.40;;;;;;;4.88;73.52;102571.13;5239469;28;20395;-69
2021/04/03 04:21:40;;;;;;;18.55;3.38;;;;;;;4.84;73.63;102575.56;5241151;28;20021;-69
2021/04/03 04:24:11;;;;;;;20.27;4.18;;;;;;;4.84;73.88;102575.56;5241304;28;20061;-69
2021/04/03 04:26:42;;;;;;;17.80;3.58;;;;;;;4.82;74.11;102569.59;5233727;28;20028;-69
2021/04/03 04:29:13;;;;;;;17.25;3.58;;;;;;;4.79;74.19;102576.63;5238522;28;20040;-69
2021/04/03 04:31:45;;;;;;;25.20;4.07;;;;;;;4.80;74.16;102573.97;5225547;28;20045;-69
2021/04/03 04:34:17;;;;;;;23.73;5.55;;;;;;;4.85;74.33;102592.03;5240154;28;20037;-69
2021/04/03 04:36:48;;;;;;;21.70;3.25;;;;;;;4.79;75.09;102587.03;5238796;28;20487;-69
2021/04/03 04:39:19;;;;;;;21.10;3.60;;;;;;;4.77;74.41;102588.81;5239117;28;20036;-69
2021/04/03 04:41:51;;;;;;;21.70;5.10;;;;;;;4.81;75.07;102600.78;5240584;28;20018;-69
2021/04/03 04:44:22;;;;;;;20.48;4.30;;;;;;;4.79;73.59;102606.03;5240089;28;20055;-69
2021/04/03 04:46:53;;;;;;;27.27;4.25;;;;;;;4.75;74.64;102607.03;5238638;28;20021;-69
2021/04/03 04:49:25;;;;;;;17.58;3.83;;;;;;;4.81;73.79;102612.06;5239212;28;20052;-69
2021/04/03 04:51:56;;;;;;;20.48;3.40;;;;;;;4.76;73.52;102608.72;5238706;28;20029;-69
2021/04/03 04:54:27;;;;;;;26.25;4.20;;;;;;;4.75;74.27;102612.25;5239659;28;20239;-69
2021/04/03 04:56:59;;;;;;;16.50;3.95;;;;;;;4.78;74.03;102616.50;5240687;28;20037;-69
2021/04/03 04:59:30;;;;;;;20.30;4.32;;;;;;;4.76;73.85;102610.50;5239253;28;20554;-69
2021/04/03 05:02:02;;;;;;;20.55;4.70;;;;;;;4.77;74.15;102620.84;5225798;28;20034;-69
2021/04/03 05:04:33;;;;;;;23.20;4.40;;;;;;;4.80;75.00;102625.91;5238128;28;20076;-69
2021/04/03 05:07:04;;;;;;;18.48;3.70;;;;;;;4.78;74.76;102627.72;5239688;28;20033;-69
2021/04/03 05:09:36;;;;;;;23.45;4.28;;;;;;;4.76;74.61;102631.25;5236889;28;20025;-69
2021/04/03 05:12:07;;;;;;;24.33;4.38;;;;;;;4.76;74.26;102639.03;5240719;28;20025;-69
2021/04/03 05:14:39;;;;;;;23.50;4.15;;;;;;;4.75;74.54;102637.34;5238147;28;20029;-69
2021/04/03 05:17:10;;;;;;;23.50;4.20;;;;;;;4.73;74.16;102639.13;5238269;28;20352;-69
2021/04/03 05:19:41;;;;;;;21.88;3.63;;;;;;;4.68;74.63;102643.63;5238472;28;20034;-70
2021/04/03 05:22:12;;;;;;;19.05;3.78;;;;;;;4.66;74.86;102640.22;5238437;28;20055;-70
2021/04/03 05:24:44;;;;;;;20.38;4.45;;;;;;;4.65;74.84;102644.56;5240176;28;20025;-70
2021/04/03 05:27:15;;;;;;;25.02;4.53;;;;;;;4.65;75.31;102639.38;5240792;28;20042;-71
2021/04/03 05:29:46;;;;;;;24.58;4.40;;;;;;;4.59;74.46;102640.44;5240180;28;20483;-70
2021/04/03 05:32:18;;;;;;;24.77;5.80;;;;;;;4.57;74.84;102629.22;5239350;28;20054;-70
2021/04/03 05:34:50;;;;;;;27.40;5.13;;;;;;;4.47;75.48;102633.03;5237558;28;20029;-70
2021/04/03 05:37:21;;;;;;;17.88;4.10;;;;;;;4.44;74.85;102643.50;5232565;28;20031;-70
2021/04/03 05:39:52;;;;;;;17.15;4.43;;;;;;;4.36;75.31;102643.72;5236471;28;20056;-68
2021/04/03 05:42:28;;;;;;;21.40;5.25;;;;;;;4.29;76.02;102641.38;5239244;28;20037;-68
2021/04/03 05:45:04;;;;;;;26.90;4.35;;;;;;;4.40;75.43;102647.09;5231502;28;20068;-70
2021/04/03 05:47:35;;;;;;;24.73;4.43;;;;;;;4.36;75.30;102650.66;5237855;28;20037;-70
2021/04/03 05:50:08;;;;;;;24.88;4.75;;;;;;;4.32;75.03;102659.44;5237442;28;20033;-68
2021/04/03 05:52:41;;;;;;;30.08;5.20;;;;;;;4.28;75.48;102663.88;5238973;28;20044;-67
2021/04/03 05:55:12;;;;;;;25.52;4.60;;;;;;;4.22;75.56;102668.38;5238960;28;20026;-68
2021/04/03 05:57:44;;;;;;;23.58;4.93;;;;;;;4.27;75.83;102675.13;5235145;28;20044;-67
2021/04/03 06:00:15;;;;;;;20.30;4.85;;;;;;;4.29;75.51;102683.72;5238059;28;20120;-68
2021/04/03 06:02:47;;;;;;;24.67;4.55;;;;;;;4.33;75.94;102682.75;5238343;28;20061;-68
2021/04/03 06:05:18;;;;;;;19.05;3.97;;;;;;;4.20;75.85;102688.31;5238247;28;20120;-69
2021/04/03 06:07:50;;;;;;;20.92;4.45;;;;;;;4.28;75.24;102694.13;5238730;28;20025;-69
2021/04/03 06:10:21;;;;;;;25.17;4.22;;;;;;;4.30;75.56;102697.53;5238549;28;20032;-69
2021/04/03 06:12:52;;;;;;;27.27;4.63;;;;;;;4.31;76.60;102692.28;5239313;28;20055;-68
2021/04/03 06:15:26;;;;;;;23.63;5.07;;;;;;;4.31;75.60;102696.63;5235178;28;20144;-68
2021/04/03 06:17:59;;;;;;;21.30;3.55;;;;;;;4.29;75.60;102706.22;5236463;28;20036;-68
2021/04/03 06:20:42;;;;;;;26.20;4.82;;;;;;;4.39;75.96;102710.25;5238177;28;20029;-69
2021/04/03 06:23:13;;;;;;;22.40;5.20;;;;;;;4.38;76.07;102721.53;5237853;28;20052;-69
2021/04/03 06:25:53;;;;;;;26.70;4.45;;;;;;;4.48;75.62;102717.78;5239263;28;20020;-68
2021/04/03 06:28:33;;;;;;;26.23;5.15;;;;;;;4.50;76.08;102722.91;5236902;28;20033;-68
2021/04/03 06:31:19;;;;;;;19.35;4.45;;;;;;;4.57;76.31;102722.69;5237821;28;20078;-68
2021/04/03 06:33:50;;;;;;;21.05;4.30;;;;;;;4.53;76.49;102721.06;5236548;28;20053;-69
2021/04/03 06:36:22;;;;;;;24.08;4.80;;;;;;;4.59;75.53;102733.88;5237359;28;20033;-68
2021/04/03 06:38:59;;;;;;;23.85;4.70;;;;;;;4.61;74.68;102734.66;5238422;28;20029;-68
2021/04/03 06:41:30;;;;;;;20.17;4.20;;;;;;;4.63;74.98;102730.31;5237623;28;20032;-68
2021/04/03 06:44:09;;;;;;;25.27;4.72;;;;;;;4.71;74.59;102734.41;5236860;28;20022;-68
2021/04/03 06:46:43;;;;;;;23.58;5.13;;;;;;;4.70;75.63;102730.09;5238483;28;20473;-71
2021/04/03 06:49:15;;;;;;;25.35;5.28;;;;;;;4.81;76.18;102739.28;5235644;28;20040;-69
2021/04/03 06:51:46;;;;;;;31.70;5.18;;;;;;;4.92;75.79;102733.75;5239954;28;20025;-69
2021/04/03 06:54:19;;;;;;;28.52;5.47;;;;;;;4.96;75.08;102750.94;5241349;28;20029;-69
2021/04/03 06:56:55;;;;;;;28.33;5.95;;;;;;;5.05;76.01;102749.81;5240003;28;20384;-69
2021/04/03 06:59:27;;;;;;;22.27;5.38;;;;;;;5.10;75.17;102753.13;5243436;28;20075;-69
2021/04/03 07:02:00;;;;;;;23.88;5.15;;;;;;;5.20;75.16;102756.28;5238129;28;20116;-69
2021/04/03 07:04:42;;;;;;;18.83;5.00;;;;;;;5.26;74.28;102766.47;5242076;28;20027;-69
2021/04/03 07:07:14;;;;;;;26.42;6.35;;;;;;;5.26;73.01;102756.91;5240766;28;20028;-69
2021/04/03 07:09:47;;;;;;;27.45;6.80;;;;;;;5.33;73.11;102760.19;5240899;28;20060;-69
2021/04/03 07:12:18;;;;;;;23.83;4.80;;;;;;;5.34;73.34;102751.47;5240873;28;20041;-69
2021/04/03 07:14:50;;;;;;;23.40;5.90;;;;;;;5.36;73.33;102762.69;5241110;28;20024;-69
2021/04/03 07:17:24;;;;;;;22.70;4.63;;;;;;;5.47;74.12;102763.19;5242556;28;20033;-69
2021/04/03 07:19:56;;;;;;;29.08;6.05;;;;;;;5.53;72.75;102757.81;5240191;28;20122;-68
2021/04/03 07:22:28;;;;;;;23.60;5.15;;;;;;;5.57;72.66;102761.16;5241377;28;20036;-68
2021/04/03 07:25:00;;;;;;;27.00;5.93;;;;;;;5.61;72.94;102758.41;5244198;28;20032;-68
2021/04/03 07:27:32;;;;;;;28.70;5.65;;;;;;;5.67;71.99;102772.94;5242059;28;20025;-69
2021/04/03 07:30:04;;;;;;;30.58;5.20;;;;;;;5.70;72.13;102764.19;5241801;28;20445;-68
2021/04/03 07:32:38;;;;;;;28.67;5.82;;;;;;;5.76;72.31;102769.19;5242088;28;20049;-68
2021/04/03 07:35:17;;;;;;;24.08;4.60;;;;;;;5.87;72.33;102769.66;5225753;28;20036;-68
2021/04/03 07:37:50;;;;;;;27.52;5.55;;;;;;;5.89;71.93;102778.25;5227842;28;20805;-68
2021/04/03 07:40:24;;;;;;;29.98;5.75;;;;;;;5.96;70.78;102779.78;5242394;28;20440;-68
2021/04/03 07:42:57;;;;;;;25.40;5.35;;;;;;;5.95;69.99;102783.31;5240470;28;20029;-68
2021/04/03 07:45:40;;;;;;;30.40;5.43;;;;;;;6.02;70.97;102779.59;5242232;28;20037;-68
2021/04/03 07:48:15;;;;;;;28.50;5.97;;;;;;;6.03;69.55;102781.28;5241899;28;20132;-69
2021/04/03 07:50:47;;;;;;;31.27;6.22;;;;;;;6.03;69.67;102789.09;5240629;28;20036;-69
2021/04/03 07:53:48;;;;;;;23.98;5.28;;;;;;;6.18;70.35;102776.44;5240157;28;20044;-70
2021/04/03 07:56:22;;;;;;;30.17;6.00;;;;;;;6.13;69.75;102789.59;5215904;28;20040;-70
2021/04/03 07:58:54;;;;;;;32.47;6.32;;;;;;;6.19;69.80;102783.34;5240773;28;20037;-70
2021/04/03 08:01:27;;;;;;;28.20;6.28;;;;;;;6.19;70.49;102783.34;5240425;28;20356;-69
2021/04/03 08:04:03;;;;;;;28.80;5.90;;;;;;;6.22;70.38;102789.28;5240507;28;20033;-70
2021/04/03 08:06:37;;;;;;;27.77;6.57;;;;;;;6.25;69.96;102788.31;5242215;28;20040;-70
2021/04/03 08:09:14;;;;;;;28.30;5.95;;;;;;;6.31;69.92;102798.53;5233292;28;20592;-69
2021/04/03 08:11:47;;;;;;;29.30;6.13;;;;;;;6.32;69.01;102795.00;5239257;28;20364;-70
2021/04/03 08:14:25;;;;;;;23.97;5.33;;;;;;;6.42;69.71;102801.59;5241191;28;20383;-69
2021/04/03 08:16:57;;;;;;;29.65;6.35;;;;;;;6.43;68.10;102799.84;5239003;28;20299;-70
2021/04/03 08:19:33;;;;;;;29.77;6.38;;;;;;;6.53;68.20;102801.22;5238964;28;20036;-70
2021/04/03 08:22:09;;;;;;;25.65;5.68;;;;;;;6.54;68.02;102795.09;5241914;28;20490;-70
2021/04/03 08:24:54;;;;;;;27.30;5.20;;;;;;;6.64;67.88;102803.44;5239339;28;20505;-70
2021/04/03 08:27:35;;;;;;;25.92;5.90;;;;;;;6.67;67.78;102801.56;5240405;28;20483;-70
2021/04/03 08:30:21;;;;;;;25.90;5.70;;;;;;;6.68;67.42;102811.06;5241916;28;20048;-70
2021/04/03 08:33:03;;;;;;;22.42;5.82;;;;;;;6.82;67.39;102815.78;5239026;28;20046;-70
2021/04/03 08:35:36;;;;;;;31.80;7.10;;;;;;;6.90;67.77;102816.31;5241267;28;20111;-70
2021/04/03 08:38:21;;;;;;;24.85;5.95;;;;;;;7.04;67.96;102813.19;5240813;28;20064;-70
2021/04/03 08:40:55;;;;;;;28.20;6.05;;;;;;;7.16;66.32;102832.69;5240861;28;20607;-69
2021/04/03 08:43:27;;;;;;;24.40;6.30;;;;;;;7.27;66.76;102830.53;5241524;28;20025;-69
2021/04/03 08:46:08;;;;;;;20.13;5.65;;;;;;;7.39;66.33;102822.25;5239246;28;20024;-69
2021/04/03 08:48:41;;;;;;;26.70;5.22;;;;;;;7.52;65.89;102838.25;5239161;28;20383;-70
2021/04/03 08:51:13;;;;;;;;;;;;;;;7.76;66.79;102824.19;5239731;28;20032;-69
2021/04/03 08:53:49;;;;;;;26.52;5.57;;;;;;;7.63;64.57;102819.56;5238241;28;19916;-69
2021/04/03 08:56:24;;;;;;;28.63;6.30;;;;;;;7.69;64.27;102828.00;5240297;28;20110;-70
2021/04/03 08:58:58;;;;;;;26.33;5.50;;;;;;;7.60;63.70;102811.84;5239743;28;20395;-69
2021/04/03 09:01:32;;;;;;;25.27;5.57;;;;;;;7.76;64.38;102826.81;5238398;28;20060;-69
2021/04/03 09:04:07;;;;;;;30.80;5.75;;;;;;;7.87;64.08;102821.13;5239385;28;20433;-69
2021/04/03 09:06:42;;;;;;;26.48;5.57;;;;;;;7.83;63.90;102806.53;5239841;28;20129;-70
2021/04/03 09:09:14;;;;;;;26.83;5.90;;;;;;;7.90;63.76;102815.81;5231236;28;20043;-71
2021/04/03 09:12:11;;;;;;;26.53;6.00;;;;;;;8.13;64.69;102811.38;5239564;28;20017;-69
2021/04/03 09:14:50;;;;;;;19.13;4.75;;;;;;;8.01;63.21;102817.97;5218209;28;20091;-70
2021/04/03 09:17:25;;;;;;;35.40;6.15;;;;;;;8.05;62.76;102819.53;5237536;28;20471;-70
2021/04/03 09:20:11;;;;;;;26.17;6.15;;;;;;;8.06;63.25;102813.38;5234626;28;20040;-69
2021/04/03 09:22:44;;;;;;;24.73;5.18;;;;;;;8.02;62.42;102817.88;5238579;28;20025;-70
2021/04/03 09:25:18;;;;;;;21.00;5.07;;;;;;;8.21;63.44;102817.09;5237017;28;20068;-70
2021/04/03 09:28:06;;;;;;;24.50;5.35;;;;;;;8.33;62.93;102816.56;5226198;28;20040;-70
2021/04/03 09:30:43;;;;;;;24.55;5.30;;;;;;;8.26;61.67;102813.41;5237325;28;20025;-70
2021/04/03 09:33:18;;;;;;;18.55;5.25;;;;;;;8.26;61.24;102812.56;5207860;28;20068;-70
2021/04/03 09:35:51;;;;;;;21.08;4.80;;;;;;;8.40;61.53;102807.56;5223737;28;20120;-72
2021/04/03 09:38:30;;;;;;;27.75;6.32;;;;;;;8.44;61.29;102814.34;5238012;28;20028;-70
2021/04/03 09:41:01;;;;;;;25.63;5.93;;;;;;;8.47;60.62;102814.22;5237565;28;20099;-70
2021/04/03 09:43:40;;;;;;;23.77;5.70;;;;;;;8.63;59.79;102806.53;5238733;28;20028;-70
2021/04/03 09:46:11;;;;;;;24.88;4.95;;;;;;;8.76;60.45;102806.84;5237313;28;20454;-70
2021/04/03 09:48:43;;;;;;;18.92;4.82;;;;;;;8.84;59.25;102811.72;5239474;28;20032;-70
2021/04/03 09:51:14;;;;;;;22.48;5.60;;;;;;;8.76;59.76;102804.25;5238055;28;20831;-70
2021/04/03 09:53:47;;;;;;;24.02;5.93;;;;;;;9.07;59.47;102805.44;5238563;28;20021;-70
2021/04/03 09:56:19;;;;;;;23.73;5.50;;;;;;;9.35;58.74;102797.94;5239928;28;20033;-70
2021/04/03 09:58:50;;;;;;;27.50;6.15;;;;;;;9.49;58.17;102797.28;5237781;28;20475;-70
2021/04/03 10:01:21;;;;;;;24.17;6.28;;;;;;;9.79;57.44;102797.53;5237804;28;20033;-70
2021/04/03 10:03:54;;;;;;;21.50;5.75;;;;;;;9.81;56.34;102800.94;5236713;28;20048;-70
2021/04/03 10:06:26;;;;;;;25.23;5.93;;;;;;;9.61;56.50;102793.22;5236854;28;20049;-70
2021/04/03 10:08:57;;;;;;;29.92;5.50;;;;;;;9.65;57.41;102805.22;5239852;28;20021;-70
2021/04/03 10:11:29;;;;;;;17.60;4.40;;;;;;;9.67;56.58;102801.63;5237817;28;20032;-70
2021/04/03 10:14:00;;;;;;;26.10;5.60;;;;;;;9.58;56.60;102798.59;5236670;28;20057;-70
2021/04/03 10:16:31;;;;;;;21.08;5.82;;;;;;;9.75;56.31;102807.31;5237359;28;20021;-70
2021/04/03 10:19:03;;;;;;;22.83;4.75;;;;;;;9.89;56.34;102798.78;5238439;28;20037;-70
2021/04/03 10:21:35;;;;;;;22.60;4.97;;;;;;;10.08;55.55;102803.09;5238286;28;20060;-70
2021/04/03 10:24:07;;;;;;;15.65;5.20;;;;;;;10.40;54.99;102802.25;5237747;28;20108;-70
2021/04/03 10:26:38;;;;;;;22.33;5.72;;;;;;;10.53;54.37;102801.59;5238716;28;20144;-70
2021/04/03 10:29:10;;;;;;;22.30;5.57;;;;;;;10.43;53.93;102803.88;5238631;28;20041;-71
2021/04/03 10:31:41;;;;;;;24.27;5.43;;;;;;;10.65;52.08;102803.59;5238550;28;20386;-70
2021/04/03 10:34:12;;;;;;;19.58;4.68;;;;;;;10.82;52.16;102806.13;5238554;28;20449;-69
2021/04/03 10:36:44;;;;;;;19.73;5.22;;;;;;;10.87;52.02;102805.88;5231714;28;20481;-70
2021/04/03 10:39:15;;;;;;;18.45;5.10;;;;;;;11.11;51.46;102811.56;5244544;28;20458;-70
2021/04/03 10:41:46;;;;;;;15.68;5.15;;;;;;;11.22;51.64;102809.19;5245087;28;20509;-69
2021/04/03 10:44:18;;;;;;;20.50;5.47;;;;;;;11.40;50.52;102810.78;5217254;28;20052;-69
2021/04/03 10:46:49;;;;;;;21.48;5.15;;;;;;;11.41;51.80;102811.63;5219514;28;20078;-69
2021/04/03 10:49:21;;;;;;;16.73;5.50;;;;;;;11.47;52.20;102805.16;5239936;28;20033;-69
2021/04/03 10:51:53;;;;;;;16.33;4.25;;;;;;;11.49;51.23;102811.19;5242829;28;20044;-70
2021/04/03 10:54:25;;;;;;;21.02;4.78;;;;;;;11.10;50.64;102813.34;5235864;28;20029;-70
2021/04/03 10:56:56;;;;;;;20.73;5.47;;;;;;;10.98;51.04;102815.78;5238159;28;20029;-70
2021/04/03 10:59:27;;;;;;;21.83;5.25;;;;;;;11.04;51.72;102818.91;5239802;28;20478;-70
2021/04/03 11:01:59;;;;;;;20.88;4.63;;;;;;;11.29;51.29;102807.03;5221392;28;20041;-70
2021/04/03 11:04:30;;;;;;;21.58;4.68;;;;;;;11.36;48.79;102805.75;5237888;28;20017;-70
2021/04/03 11:07:02;;;;;;;21.40;4.75;;;;;;;11.62;48.65;102801.66;5239604;28;20029;-70
2021/04/03 11:09:33;;;;;;;16.27;4.78;;;;;;;11.60;48.24;102809.63;5239975;28;20026;-70
2021/04/03 11:12:05;;;;;;;18.13;4.30;;;;;;;11.64;47.97;102808.50;5238091;28;20056;-70
2021/04/03 11:14:36;;;;;;;13.68;4.80;;;;;;;11.96;47.63;102795.28;5239484;28;20546;-70
2021/04/03 11:17:08;;;;;;;10.90;4.00;;;;;;;12.04;46.24;102781.69;5238312;28;20039;-70
2021/04/03 11:19:40;;;;;;;13.32;3.45;;;;;;;12.03;46.71;102782.66;5239678;28;20033;-71
2021/04/03 11:22:11;;;;;;;12.95;3.65;;;;;;;12.21;46.58;102789.44;5221231;28;20087;-70
2021/04/03 11:24:42;;;;;;;17.77;4.45;;;;;;;12.38;45.89;102786.59;5237858;28;20029;-71
2021/04/03 11:27:13;;;;;;;18.60;4.32;;;;;;;12.53;46.28;102792.69;5236253;28;20029;-70
2021/04/03 11:29:45;;;;;;;16.80;4.18;;;;;;;12.47;45.48;102787.00;5238823;28;20040;-70
2021/04/03 11:32:17;;;;;;;15.15;4.40;;;;;;;12.32;46.89;102780.88;5235618;28;20127;-70
2021/04/03 11:34:48;;;;;;;21.80;5.00;;;;;;;12.09;48.33;102790.16;5219865;28;20418;-71
2021/04/03 11:37:19;;;;;;;24.02;5.50;;;;;;;11.96;47.45;102797.91;5218443;28;20025;-71
2021/04/03 11:39:50;;;;;;;22.10;5.35;;;;;;;11.83;48.34;102804.81;5245417;28;20441;-70
2021/04/03 11:42:22;;;;;;;17.95;4.60;;;;;;;11.72;47.99;102797.56;5240482;28;20889;-70
2021/04/03 11:44:53;;;;;;;16.42;4.57;;;;;;;11.53;47.96;102800.41;5238204;28;20494;-70
2021/04/03 11:47:24;;;;;;;18.83;4.85;;;;;;;11.51;49.41;102793.53;5240539;28;20123;-70
2021/04/03 11:49:57;;;;;;;19.17;5.00;;;;;;;11.88;48.88;102800.16;5240254;28;20021;-70
2021/04/03 11:52:31;;;;;;;13.60;3.95;;;;;;;12.06;46.17;102791.19;5241395;28;20037;-70
2021/04/03 11:55:05;;;;;;;16.30;4.70;;;;;;;12.18;46.21;102786.97;5238662;28;20098;-70